createdAt,value
2023-04-07T00:00:36.059Z,1.00
2023-04-07T00:03:07.452Z,1.00
2023-04-07T00:05:35.592Z,1.00
2023-04-07T00:08:03.359Z,1.00
2023-04-07T00:10:31.237Z,1.00
2023-04-07T00:12:59.107Z,1.00
2023-04-07T00:15:27.409Z,1.00
2023-04-07T00:17:55.246Z,1.40
2023-04-07T00:20:24.625Z,1.40
2023-04-07T00:22:52.395Z,1.40
2023-04-07T00:25:20.402Z,1.30
2023-04-07T00:27:48.205Z,1.00
2023-04-07T00:30:25.470Z,1.40
2023-04-07T00:32:53.283Z,1.00
2023-04-07T00:35:21.315Z,1.00
2023-04-07T00:37:50.398Z,1.80
2023-04-07T00:40:18.997Z,1.70
2023-04-07T00:42:46.700Z,1.80
2023-04-07T00:45:14.479Z,2.40
2023-04-07T00:47:42.421Z,2.70
2023-04-07T00:50:11.048Z,2.70
2023-04-07T00:52:39.026Z,3.20
2023-04-07T00:55:09.105Z,3.00
2023-04-07T00:57:36.854Z,3.90
2023-04-07T01:00:06.637Z,4.00
2023-04-07T01:02:42.523Z,4.50
2023-04-07T01:05:17.637Z,5.00
2023-04-07T01:07:53.603Z,5.60
2023-04-07T01:10:33.363Z,6.40
2023-04-07T01:13:07.324Z,7.30
2023-04-07T01:15:36.154Z,8.10
2023-04-07T01:18:11.734Z,9.00
2023-04-07T01:20:40.982Z,9.70
2023-04-07T01:23:09.346Z,10.40
2023-04-07T01:26:01.581Z,11.80
2023-04-07T01:28:45.903Z,11.60
2023-04-07T01:31:17.713Z,12.30
2023-04-07T01:33:47.362Z,12.60
2023-04-07T01:36:17.345Z,13.30
2023-04-07T01:38:46.550Z,13.20
2023-04-07T01:41:16.078Z,13.70
2023-04-07T01:43:45.241Z,14.00
2023-04-07T01:46:15.776Z,14.20
2023-04-07T01:48:44.053Z,13.80
2023-04-07T01:51:17.303Z,14.30
2023-04-07T01:53:45.967Z,14.70
2023-04-07T01:56:13.903Z,15.80
2023-04-07T01:58:42.102Z,16.80
2023-04-07T02:01:09.957Z,17.70
2023-04-07T02:03:44.400Z,18.00
2023-04-07T02:06:16.476Z,18.60
2023-04-07T02:08:48.764Z,19.80
2023-04-07T02:11:19.303Z,21.10
2023-04-07T02:13:47.997Z,21.50
2023-04-07T02:16:17.368Z,22.10
2023-04-07T02:18:48.203Z,22.80
2023-04-07T02:21:16.830Z,23.40
2023-04-07T02:23:44.788Z,23.90
2023-04-07T02:26:12.682Z,24.20
2023-04-07T02:28:40.594Z,24.60
2023-04-07T02:31:08.356Z,25.00
2023-04-07T02:33:36.249Z,24.70
2023-04-07T02:36:05.755Z,24.90
2023-04-07T02:38:33.550Z,24.80
2023-04-07T02:41:01.354Z,24.60
2023-04-07T02:43:29.126Z,24.70
2023-04-07T02:45:56.927Z,25.00
2023-04-07T02:48:24.708Z,25.40
2023-04-07T02:50:52.430Z,25.00
2023-04-07T02:53:21.692Z,25.70
2023-04-07T02:55:49.853Z,25.90
2023-04-07T02:58:17.705Z,26.50
2023-04-07T03:00:45.527Z,26.40
2023-04-07T03:03:13.415Z,26.00
2023-04-07T03:05:41.353Z,26.00
2023-04-07T03:08:10.101Z,25.90
2023-04-07T03:10:40.096Z,26.20
2023-04-07T03:13:09.266Z,26.20
2023-04-07T03:15:39.533Z,25.90
2023-04-07T03:18:07.480Z,26.00
2023-04-07T03:20:35.307Z,25.60
2023-04-07T03:23:03.072Z,25.70
2023-04-07T03:25:31.303Z,25.70
2023-04-07T03:28:00.478Z,26.10
2023-04-07T03:30:28.451Z,26.60
2023-04-07T03:32:56.287Z,26.70
2023-04-07T03:35:24.336Z,27.40
2023-04-07T03:37:52.184Z,27.00
2023-04-07T03:40:20.190Z,26.80
2023-04-07T03:42:48.060Z,26.80
2023-04-07T03:45:17.449Z,27.00
2023-04-07T03:47:45.390Z,27.00
2023-04-07T03:50:13.146Z,27.40
2023-04-07T03:52:40.897Z,27.30
2023-04-07T03:55:09.706Z,27.30
2023-04-07T03:57:37.542Z,27.60
2023-04-07T04:00:07.052Z,27.90
2023-04-07T04:02:36.529Z,28.30
2023-04-07T04:05:04.575Z,29.00
2023-04-07T04:07:33.688Z,29.10
2023-04-07T04:10:01.752Z,29.60
2023-04-07T04:12:29.695Z,29.60
2023-04-07T04:14:57.639Z,30.20
2023-04-07T04:17:27.045Z,31.10
2023-04-07T04:19:56.333Z,31.90
2023-04-07T04:22:24.118Z,32.70
2023-04-07T04:24:54.834Z,33.20
2023-04-07T04:27:22.689Z,34.30
2023-04-07T04:29:50.568Z,34.70
2023-04-07T04:32:18.736Z,35.80
2023-04-07T04:34:46.683Z,37.40
2023-04-07T04:37:15.874Z,38.70
2023-04-07T04:39:44.180Z,39.60
2023-04-07T04:42:11.934Z,40.60
2023-04-07T04:44:39.690Z,41.40
2023-04-07T04:47:07.574Z,41.80
2023-04-07T04:49:36.101Z,43.00
2023-04-07T04:52:03.995Z,43.60
2023-04-07T04:54:33.558Z,44.40
2023-04-07T04:57:01.678Z,44.80
2023-04-07T04:59:29.653Z,45.20
2023-04-07T05:01:57.447Z,44.80
2023-04-07T05:04:25.679Z,44.70
2023-04-07T05:06:53.866Z,44.70
2023-04-07T05:09:21.563Z,44.90
2023-04-07T05:11:50.807Z,44.90
2023-04-07T05:14:18.656Z,45.00
2023-04-07T05:16:46.562Z,45.20
2023-04-07T05:19:14.307Z,45.00
2023-04-07T05:21:42.025Z,45.40
2023-04-07T05:24:09.920Z,45.50
2023-04-07T05:26:37.979Z,44.80
2023-04-07T05:29:07.381Z,44.50
2023-04-07T05:31:37.416Z,44.90
2023-04-07T05:34:05.795Z,44.90
2023-04-07T05:36:34.060Z,45.20
2023-04-07T05:39:02.070Z,44.90
2023-04-07T05:41:30.010Z,44.90
2023-04-07T05:43:57.784Z,44.70
2023-04-07T05:46:26.856Z,44.30
2023-04-07T05:48:55.124Z,44.50
2023-04-07T05:51:22.893Z,45.00
2023-04-07T05:53:50.954Z,44.40
2023-04-07T05:56:18.972Z,44.60
2023-04-07T05:58:47.222Z,44.80
2023-04-07T06:01:14.991Z,44.30
2023-04-07T06:03:44.256Z,45.20
2023-04-07T06:06:12.308Z,45.60
2023-04-07T06:08:40.165Z,45.10
2023-04-07T06:11:07.991Z,44.50
2023-04-07T06:13:35.932Z,44.10
2023-04-07T06:16:03.845Z,44.00
2023-04-07T06:18:31.744Z,43.80
2023-04-07T06:21:02.227Z,43.50
2023-04-07T06:23:30.285Z,43.50
2023-04-07T06:25:58.268Z,43.10
2023-04-07T06:28:26.442Z,43.00
2023-04-07T06:30:54.368Z,42.70
2023-04-07T06:33:25.556Z,42.50
2023-04-07T06:35:53.702Z,42.10
2023-04-07T06:38:23.019Z,42.20
2023-04-07T06:40:50.882Z,41.90
2023-04-07T06:43:18.750Z,41.70
2023-04-07T06:45:46.636Z,41.40
2023-04-07T06:48:14.452Z,41.00
2023-04-07T06:50:42.717Z,50.80
2023-04-07T06:53:10.656Z,52.80
2023-04-07T06:55:39.962Z,49.80
2023-04-07T06:58:07.725Z,46.90
2023-04-07T07:00:36.026Z,44.00
2023-04-07T07:03:04.066Z,43.00
2023-04-07T07:05:32.266Z,44.90
2023-04-07T07:08:00.269Z,40.40
2023-04-07T07:10:28.193Z,36.90
2023-04-07T07:12:57.430Z,32.90
2023-04-07T07:15:25.222Z,34.50
2023-04-07T07:17:53.129Z,30.40
2023-04-07T07:20:23.484Z,29.80
2023-04-07T07:22:51.786Z,28.00
2023-04-07T07:25:19.528Z,29.10
2023-04-07T07:27:47.316Z,25.10
2023-04-07T07:30:16.542Z,24.50
2023-04-07T07:32:44.577Z,25.00
2023-04-07T07:35:12.522Z,24.70
2023-04-07T07:37:40.292Z,23.60
2023-04-07T07:40:08.738Z,23.70
2023-04-07T07:42:36.544Z,23.80
2023-04-07T07:45:04.809Z,23.00
2023-04-07T07:47:37.999Z,23.90
2023-04-07T07:50:09.704Z,22.00
2023-04-07T07:52:37.757Z,21.80
2023-04-07T07:55:06.063Z,21.20
2023-04-07T07:57:36.502Z,21.10
2023-04-07T08:00:04.923Z,20.10
2023-04-07T08:02:34.026Z,20.40
2023-04-07T08:05:03.402Z,19.10
2023-04-07T08:07:40.653Z,19.70
2023-04-07T08:10:13.981Z,18.60
2023-04-07T08:12:41.942Z,17.90
2023-04-07T08:15:10.403Z,16.80
2023-04-07T08:17:45.737Z,16.70
2023-04-07T08:20:15.105Z,16.50
2023-04-07T08:22:43.727Z,16.20
2023-04-07T08:28:40.137Z,14.80
2023-04-07T08:31:08.558Z,13.50
2023-04-07T08:33:36.446Z,12.60
2023-04-07T08:36:06.534Z,10.10
2023-04-07T08:38:34.592Z,10.50
2023-04-07T08:41:05.785Z,9.90
2023-04-07T08:43:36.370Z,8.00
2023-04-07T08:46:04.354Z,6.20
2023-04-07T08:48:34.150Z,5.30
2023-04-07T08:51:08.243Z,5.20
2023-04-07T08:53:41.665Z,3.40
2023-04-07T08:56:12.408Z,2.00
2023-04-07T08:58:41.102Z,1.00
2023-04-07T09:01:10.124Z,1.00
2023-04-07T09:03:49.199Z,1.00
2023-04-07T09:06:21.570Z,1.00
2023-04-07T09:08:49.389Z,1.00
2023-04-07T09:11:17.121Z,1.00
2023-04-07T09:13:47.844Z,1.00
2023-04-07T09:16:16.251Z,1.00
2023-04-07T09:18:44.582Z,1.00
2023-04-07T09:21:13.887Z,1.00
2023-04-07T09:23:44.480Z,1.00
2023-04-07T09:26:24.398Z,1.00
2023-04-07T09:28:55.688Z,1.00
2023-04-07T09:31:26.316Z,1.00
2023-04-07T09:33:54.410Z,1.00
2023-04-07T09:36:22.291Z,1.00
2023-04-07T09:38:51.434Z,1.00
2023-04-07T09:41:19.373Z,1.00
2023-04-07T09:43:49.449Z,1.00
2023-04-07T09:46:19.331Z,1.00
2023-04-07T09:48:48.613Z,1.00
2023-04-07T09:51:18.436Z,1.00
2023-04-07T09:53:49.049Z,1.00
2023-04-07T09:56:19.825Z,1.00
2023-04-07T09:58:48.972Z,1.00
2023-04-07T10:01:18.434Z,1.00
2023-04-07T10:03:48.379Z,1.00
2023-04-07T10:06:16.769Z,1.00
2023-04-07T10:08:45.032Z,1.00
2023-04-07T10:11:13.012Z,1.00
2023-04-07T10:13:52.566Z,1.00
2023-04-07T10:16:21.021Z,1.00
2023-04-07T10:18:49.972Z,1.00
2023-04-07T10:21:20.659Z,1.00
2023-04-07T10:23:57.948Z,1.00
2023-04-07T10:26:34.121Z,1.00
2023-04-07T10:29:09.552Z,1.00
2023-04-07T10:31:47.341Z,1.00
2023-04-07T10:34:15.315Z,1.00
2023-04-07T10:37:11.192Z,1.00
2023-04-07T10:39:39.043Z,1.00
2023-04-07T10:42:07.076Z,1.00
2023-04-07T10:44:53.111Z,1.00
2023-04-07T10:47:21.240Z,1.00
2023-04-07T10:50:16.746Z,1.00
2023-04-07T10:52:44.862Z,1.00
2023-04-07T10:55:34.526Z,1.00
2023-04-07T10:58:23.063Z,1.00
2023-04-07T11:01:22.914Z,1.00
2023-04-07T11:04:00.285Z,1.00
2023-04-07T11:06:28.736Z,1.00
2023-04-07T11:08:56.966Z,1.00
2023-04-07T11:11:42.459Z,1.00
2023-04-07T11:14:27.379Z,1.00
2023-04-07T11:17:01.612Z,1.00
2023-04-07T11:19:32.420Z,1.00
2023-04-07T11:24:57.312Z,1.00
2023-04-07T11:27:28.606Z,1.00
2023-04-07T11:29:58.217Z,1.00
2023-04-07T11:32:29.797Z,1.00
2023-04-07T11:34:58.759Z,1.00
2023-04-07T11:37:37.445Z,1.00
2023-04-07T11:40:06.234Z,1.00
2023-04-07T11:42:34.927Z,1.00
2023-04-07T11:45:03.017Z,1.00
2023-04-07T11:47:39.132Z,1.00
2023-04-07T11:50:08.263Z,1.00
2023-04-07T11:52:42.857Z,1.00
2023-04-07T11:55:20.821Z,1.00
2023-04-07T11:57:51.294Z,1.00
2023-04-07T12:00:20.561Z,1.00
2023-04-07T12:02:49.944Z,1.00
2023-04-07T12:05:18.204Z,1.00
2023-04-07T12:07:55.471Z,1.00
2023-04-07T12:10:26.580Z,1.00
2023-04-07T12:12:54.414Z,1.00
2023-04-07T12:15:22.944Z,1.00
2023-04-07T12:17:52.143Z,1.00
2023-04-07T12:20:19.964Z,1.00
2023-04-07T12:22:47.768Z,1.00
2023-04-07T12:25:15.943Z,1.00
2023-04-07T12:27:44.126Z,1.00
2023-04-07T12:30:12.892Z,1.00
2023-04-07T12:32:41.461Z,1.00
2023-04-07T12:35:10.978Z,1.00
2023-04-07T12:37:38.825Z,1.00
2023-04-07T12:40:08.032Z,1.00
2023-04-07T12:42:36.166Z,1.00
2023-04-07T12:45:04.575Z,1.00
2023-04-07T12:47:32.742Z,1.00
2023-04-07T12:50:00.698Z,1.00
2023-04-07T12:52:29.785Z,1.00
2023-04-07T12:54:58.516Z,1.00
2023-04-07T12:57:29.519Z,1.00
2023-04-07T12:59:57.639Z,1.00
2023-04-07T13:02:25.755Z,1.00
2023-04-07T13:04:53.883Z,1.00
2023-04-07T13:07:22.111Z,1.00
2023-04-07T13:09:51.217Z,1.00
2023-04-07T13:12:19.036Z,1.00
2023-04-07T13:14:59.306Z,1.00
2023-04-07T13:17:28.965Z,1.00
2023-04-07T13:19:57.457Z,1.00
2023-04-07T13:22:29.679Z,1.00
2023-04-07T13:25:00.818Z,1.00
2023-04-07T13:27:29.690Z,1.00
2023-04-07T13:29:57.913Z,1.00
2023-04-07T13:32:25.952Z,1.00
2023-04-07T13:34:53.853Z,1.00
2023-04-07T13:37:21.580Z,1.00
2023-04-07T13:39:49.473Z,1.00
2023-04-07T13:42:20.497Z,1.00
2023-04-07T13:44:50.565Z,1.00
2023-04-07T13:47:20.314Z,1.00
2023-04-07T13:49:49.323Z,1.00
2023-04-07T13:52:17.788Z,1.00
2023-04-07T13:54:46.127Z,1.00
2023-04-07T13:57:19.250Z,1.00
2023-04-07T13:59:52.132Z,1.00
2023-04-07T14:02:20.573Z,1.00
2023-04-07T14:04:48.460Z,1.00
2023-04-07T14:07:16.255Z,1.00
2023-04-07T14:09:44.386Z,1.00
2023-04-07T14:12:12.261Z,1.00
2023-04-07T14:14:40.470Z,1.00
2023-04-07T14:17:09.623Z,1.00
2023-04-07T14:19:37.554Z,1.00
2023-04-07T14:22:05.877Z,1.00
2023-04-07T14:24:33.770Z,1.00
2023-04-07T14:27:04.948Z,1.00
2023-04-07T14:29:33.020Z,1.00
2023-04-07T14:32:01.007Z,1.00
2023-04-07T14:34:30.420Z,1.00
2023-04-07T14:36:59.665Z,1.00
2023-04-07T14:39:27.624Z,1.00
2023-04-07T14:41:55.463Z,1.00
2023-04-07T14:44:31.716Z,1.00
2023-04-07T14:47:03.072Z,1.00
2023-04-07T14:49:32.156Z,1.00
2023-04-07T14:52:01.315Z,1.00
2023-04-07T14:54:29.739Z,1.00
2023-04-07T14:56:57.605Z,1.00
2023-04-07T14:59:25.650Z,1.00
2023-04-07T15:01:54.366Z,1.00
2023-04-07T15:04:22.438Z,1.00
2023-04-07T15:06:51.666Z,1.00
2023-04-07T15:09:19.506Z,1.00
2023-04-07T15:11:47.156Z,1.00
2023-04-07T15:14:27.385Z,1.00
2023-04-07T15:17:43.003Z,1.00
2023-04-07T15:20:13.229Z,1.00
2023-04-07T15:22:42.818Z,1.00
2023-04-07T15:25:10.580Z,1.00
2023-04-07T15:27:38.360Z,1.00
2023-04-07T15:30:07.033Z,1.00
2023-04-07T15:32:34.850Z,1.00
2023-04-07T15:35:02.693Z,1.00
2023-04-07T15:37:30.440Z,1.00
2023-04-07T15:39:59.484Z,1.00
2023-04-07T15:42:27.197Z,1.00
2023-04-07T15:44:54.897Z,1.00
2023-04-07T15:47:22.831Z,1.00
2023-04-07T15:49:50.603Z,1.00
2023-04-07T15:52:18.335Z,1.00
2023-04-07T15:54:46.515Z,1.00
2023-04-07T15:57:16.783Z,1.00
2023-04-07T15:59:44.566Z,1.00
2023-04-07T16:02:14.129Z,1.00
2023-04-07T16:04:42.621Z,1.00
2023-04-07T16:07:10.365Z,1.00
2023-04-07T16:09:38.734Z,1.00
2023-04-07T16:12:06.486Z,1.00
2023-04-07T16:14:36.212Z,1.00
2023-04-07T16:17:04.048Z,1.00
2023-04-07T16:19:31.751Z,1.00
2023-04-07T16:21:59.577Z,1.00
2023-04-07T16:24:27.336Z,1.00
2023-04-07T16:26:55.794Z,1.00
2023-04-07T16:29:23.800Z,1.00
2023-04-07T16:31:52.819Z,1.00
2023-04-07T16:34:25.181Z,1.00
2023-04-07T16:36:53.823Z,1.00
2023-04-07T16:39:22.977Z,1.00
2023-04-07T16:41:52.368Z,1.00
2023-04-07T16:44:22.054Z,1.00
2023-04-07T16:46:49.872Z,1.00
2023-04-07T16:49:20.409Z,1.00
2023-04-07T16:51:49.361Z,1.00
2023-04-07T16:54:17.176Z,1.00
2023-04-07T16:56:46.390Z,1.00
2023-04-07T16:59:14.125Z,1.00
2023-04-07T17:01:44.836Z,1.00
2023-04-07T17:04:14.497Z,1.00
2023-04-07T17:06:44.248Z,1.00
2023-04-07T17:09:16.077Z,1.00
2023-04-07T17:11:43.968Z,1.00
2023-04-07T17:14:11.710Z,1.00
2023-04-07T17:16:41.325Z,1.00
2023-04-07T17:19:09.606Z,1.00
2023-04-07T17:21:38.381Z,1.00
2023-04-07T17:24:09.456Z,1.00
2023-04-07T17:26:37.286Z,1.00
2023-04-07T17:29:05.126Z,1.00
2023-04-07T17:31:34.450Z,1.00
2023-04-07T17:34:02.482Z,1.00
2023-04-07T17:36:32.473Z,1.00
2023-04-07T17:39:01.077Z,1.00
2023-04-07T17:41:32.704Z,1.00
2023-04-07T17:44:03.769Z,1.00
2023-04-07T17:46:31.798Z,1.00
2023-04-07T17:48:59.645Z,1.00
2023-04-07T17:51:28.819Z,1.00
2023-04-07T17:53:56.723Z,1.00
2023-04-07T17:56:25.499Z,1.00
2023-04-07T17:58:54.603Z,1.00
2023-04-07T18:01:22.527Z,1.00
2023-04-07T18:03:51.604Z,1.00
2023-04-07T18:06:20.052Z,1.00
2023-04-07T18:08:48.422Z,1.00
2023-04-07T18:11:16.705Z,1.00
2023-04-07T18:13:44.871Z,1.00
2023-04-07T18:16:19.834Z,1.00
2023-04-07T18:18:49.267Z,1.00
2023-04-07T18:21:17.086Z,1.00
2023-04-07T18:23:44.904Z,1.00
2023-04-07T18:26:12.835Z,1.00
2023-04-07T18:28:40.706Z,1.00
2023-04-07T18:31:12.216Z,1.00
2023-04-07T18:33:41.267Z,1.00
2023-04-07T18:36:09.318Z,1.00
2023-04-07T18:38:38.036Z,1.00
2023-04-07T18:41:07.717Z,1.00
2023-04-07T18:43:35.576Z,1.00
2023-04-07T18:46:03.481Z,1.00
2023-04-07T18:48:31.333Z,1.00
2023-04-07T18:51:00.444Z,1.00
2023-04-07T18:53:30.924Z,1.00
2023-04-07T18:55:59.533Z,1.00
2023-04-07T18:58:27.435Z,1.00
2023-04-07T19:00:57.781Z,1.00
2023-04-07T19:03:26.482Z,1.00
2023-04-07T19:05:55.307Z,1.00
2023-04-07T19:08:24.587Z,1.00
2023-04-07T19:10:52.313Z,1.00
2023-04-07T19:13:20.414Z,1.00
2023-04-07T19:15:48.383Z,1.60
2023-04-07T19:18:16.597Z,6.70
2023-04-07T19:20:44.563Z,11.70
2023-04-07T19:23:12.287Z,17.00
2023-04-07T19:25:53.283Z,22.20
2023-04-07T19:28:21.364Z,28.40
2023-04-07T19:30:50.453Z,35.20
2023-04-07T19:33:18.364Z,40.60
2023-04-07T19:35:46.421Z,44.60
2023-04-07T19:38:14.200Z,48.60
2023-04-07T19:40:44.742Z,52.90
2023-04-07T19:43:16.366Z,58.10
2023-04-07T19:45:47.569Z,65.10
2023-04-07T19:48:15.648Z,72.10
2023-04-07T19:50:44.093Z,79.10
2023-04-07T19:53:16.049Z,83.10
2023-04-07T19:55:43.825Z,87.30
2023-04-07T19:58:11.763Z,90.40
2023-04-07T20:00:41.446Z,92.00
2023-04-07T20:03:09.421Z,93.00
2023-04-07T20:05:38.305Z,94.40
2023-04-07T20:08:06.108Z,95.70
2023-04-07T20:10:36.689Z,96.30
2023-04-07T20:13:06.289Z,97.30
2023-04-07T20:15:34.242Z,98.30
2023-04-07T20:18:03.533Z,98.70
2023-04-07T20:20:31.613Z,99.90
2023-04-07T20:22:59.537Z,99.90
2023-04-07T20:25:32.006Z,99.90
2023-04-07T20:28:10.844Z,99.90
2023-04-07T20:30:38.727Z,99.90
2023-04-07T20:36:03.481Z,99.90
2023-04-07T20:38:39.045Z,99.90
2023-04-07T20:41:07.414Z,99.90
2023-04-07T20:43:40.628Z,99.90
2023-04-07T20:46:08.527Z,99.90
2023-04-07T20:48:38.092Z,99.90
2023-04-07T20:51:05.889Z,99.90
2023-04-07T20:53:33.820Z,99.90
2023-04-07T20:56:03.192Z,99.90
2023-04-07T20:58:34.030Z,99.90
2023-04-07T21:01:02.193Z,99.90
2023-04-07T21:03:41.055Z,99.90
2023-04-07T21:06:59.528Z,99.90
2023-04-07T21:09:54.341Z,99.90
2023-04-07T21:12:22.918Z,99.90
2023-04-07T21:14:58.170Z,99.90
2023-04-07T21:17:25.965Z,99.90
2023-04-07T21:19:55.099Z,99.90
2023-04-07T21:22:22.924Z,99.90
2023-04-07T21:24:50.832Z,99.90
2023-04-07T21:27:18.590Z,99.90
2023-04-07T21:29:46.359Z,99.90
2023-04-07T21:32:14.325Z,99.90
2023-04-07T21:34:42.319Z,99.90
2023-04-07T21:37:11.363Z,99.90
2023-04-07T21:39:39.056Z,99.90
2023-04-07T21:42:13.041Z,99.90
2023-04-07T21:44:58.440Z,99.90
2023-04-07T21:47:26.283Z,99.90
2023-04-07T21:49:54.624Z,99.90
2023-04-07T21:52:23.846Z,99.90
2023-04-07T21:54:51.662Z,99.90
2023-04-07T21:57:19.481Z,99.90
2023-04-07T21:59:47.825Z,99.90
2023-04-07T22:02:15.896Z,99.90
2023-04-07T22:04:43.678Z,99.90
2023-04-07T22:07:11.747Z,99.90
2023-04-07T22:09:43.556Z,99.90
2023-04-07T22:12:11.322Z,99.90
2023-04-07T22:14:39.255Z,99.90
2023-04-07T22:17:07.127Z,99.90
2023-04-07T22:19:34.912Z,99.90
2023-04-07T22:22:02.844Z,99.90
2023-04-07T22:24:30.603Z,99.90
2023-04-07T22:26:59.757Z,99.90
2023-04-07T22:29:27.797Z,99.90
2023-04-07T22:31:55.646Z,99.90
2023-04-07T22:34:23.455Z,99.90
2023-04-07T22:36:51.358Z,99.90
2023-04-07T22:39:19.154Z,99.90
2023-04-07T22:41:46.860Z,99.90
2023-04-07T22:44:15.917Z,99.90
2023-04-07T22:46:43.662Z,99.90
2023-04-07T22:49:11.487Z,99.90
2023-04-07T22:51:39.225Z,99.90
2023-04-07T22:54:07.007Z,99.90
2023-04-07T22:56:34.718Z,99.90
2023-04-07T22:59:05.663Z,99.90
2023-04-07T23:01:35.323Z,99.90
2023-04-07T23:04:03.090Z,99.90
2023-04-07T23:06:32.085Z,99.90
2023-04-07T23:09:00.136Z,99.90
2023-04-07T23:11:27.874Z,99.90
2023-04-07T23:13:55.614Z,99.90
2023-04-07T23:16:23.641Z,99.90
2023-04-07T23:18:52.694Z,99.90
2023-04-07T23:21:20.981Z,99.90
2023-04-07T23:23:49.000Z,99.90
2023-04-07T23:26:16.743Z,99.90
2023-04-07T23:28:44.485Z,99.90
2023-04-07T23:31:12.253Z,99.90
2023-04-07T23:33:40.042Z,99.90
2023-04-07T23:36:09.414Z,99.90
2023-04-07T23:38:39.103Z,99.90
2023-04-07T23:41:06.958Z,99.90
2023-04-07T23:43:35.565Z,99.90
2023-04-07T23:46:03.313Z,99.90
2023-04-07T23:48:31.956Z,99.90
2023-04-07T23:51:00.634Z,99.90
2023-04-07T23:53:29.679Z,99.90
2023-04-07T23:55:59.211Z,99.90
2023-04-07T23:58:27.331Z,99.90
